Airport View

Enter AWOS ICAO identifier for current METAR.

ex. KFNL

KDRM 270015Z AUTO 32004KT 10SM SCT012 BKN047 OVC060 M01/M02 A2971 RMK AO2 T10081020

27 Jan 2020 00:36

Frequency: 118.325

Phone: 906-493-6410

Other Area AWOS: KCIU - KPZQ - KMCD - KANJ

TAF CYAM 261938Z 2620/2708 33012KT 6SM -SN OVC025 TEMPO 2620/2708 5SM -SN OVC015 RMK NXT FCST BY 270200Z